Airfield :
LOGIN :

Register | Disclaimer

   EN    FR    IT 

 










Legend :    VFR   Marginal VFR   IFR   Intensive IFR   Very Intensive IFR
Visi :
Ceiling :
>= 8 km
>= 3000ft
5 to 8 km
1000 to 3000 ft
1500m to 5 km
500 to 1000 ft
800 to 1500m
200 to 500 ft
< 800m
< 200 ft
Symbols :   Thunderstorms  Fog  Heavy snow  Heavy precipitations  Wind > 20 kt
SIGMETs :     Misc.  Thunderstorms  Icing  Turbulence  Mountain Waves  Volcanic Ashes







- Airport Elevation : 1213 ft
- IATA code : SCQ


LEST - Santiago de Compostela

CURRENT METAR :
  • 220830Z VRB02KT 9999 VCFG NSC 19/17 Q1024 NOSIG

EXPIRED METARs :
  • 220800Z VRB02KT 8000 3000E BCFG NSC 17/17 Q1024 NOSIG
  • 220730Z VRB02KT 8000 3000E BCFG NSC 16/16 Q1024 NOSIG
  • 220700Z 14004KT 110V260 6000 2000E BCFG NSC 15/15 Q1024 NOSIG
  • 220649Z 15004KT 4500 0800NE R35/1000U BCFG FEW002 14/14 Q1024 BECMG 6000 NSW
  • 220630Z 14003KT 1400 0300E R17/1900N R35/0325N BCFG FEW002 14/14 Q1024 BECMG 6000 NSW
  • 220614Z VRB02KT 1500 0600E R35/0700D BCFG FEW002 14/14 Q1024 BECMG 6000 NSW
  • 220600Z 00000KT 4500 0700N R17/0800N BCFG FEW002 13/13 Q1023 BECMG 6000 NSW

TAF TAF LEST
Valid from the 22 at 06:00 until the 23 at 06:00 UTC


220500Z 2206/2306 VRB03KT 3000 BR BCFG BKN003 TX27/2214Z TN13/2206Z
TEMPO 2206/2208 1400 BCFG
TEMPO 2206/2208 0600 FG BKN001
PROB40
TEMPO 2206/2207 0350 FG VV001
BECMG 2208/2209 CAVOK
BECMG 2220/2222 3000 BR
TEMPO 2223/2306 1500 BCFG BKN003
PROB40
TEMPO 2300/2306 0500 FG VV001
No reported NOTAMs for that airfield.



MET'MAP, your aeronautical weather chart ! - Copyright ORBIFLY December 2007 - Disclaimer

ORBIFLY MET'MAP TEAM :

Programming & Development : Alexandra Zaïnal
Concept & Development : Baudouin d'Aumeries
Co-Development & Prog : Marc-Olivier Méhu
Technical & hardware support : Manuel Goepfert

Contact : metmap@orbifly.com




SOURCES & CREDITS :

   NOAA